Time,TemperatureF,DewpointF,PressureIn,WindDirection,WindDirectionDegrees,WindSpeedMPH,WindSpeedGustMPH,Humidity,HourlyPrecipIn,Conditions,Clouds,dailyrainin,SoftwareType,DateUTC
2013-08-04 00:02:00,61.0,59.0,-100.00,ESE,115,0.0,0.0,92,0.00,,,-99.99,,2013-08-04 04:02:00,
2013-08-04 00:12:00,61.0,59.0,-100.00,NNE,25,0.0,1.0,93,0.00,,,-99.99,,2013-08-04 04:12:00,
2013-08-04 00:22:00,61.0,59.0,-100.00,NE,45,0.0,2.0,93,0.00,,,-99.99,,2013-08-04 04:22:00,
2013-08-04 00:32:00,60.0,59.0,-100.00,NE,35,0.0,2.0,94,0.00,,,-99.99,,2013-08-04 04:32:00,
2013-08-04 00:42:00,60.0,59.0,-100.00,NE,40,0.0,0.0,94,0.00,,,-99.99,,2013-08-04 04:42:00,
2013-08-04 00:52:00,61.0,59.0,-100.00,NE,40,0.0,0.0,94,0.00,,,-99.99,,2013-08-04 04:52:00,
2013-08-04 01:02:00,61.0,59.0,-100.00,NE,40,0.0,0.0,93,0.00,,,-99.99,,2013-08-04 05:02:00,
2013-08-04 01:12:00,61.0,59.0,-100.00,NE,40,0.0,0.0,93,0.00,,,-99.99,,2013-08-04 05:12:00,
2013-08-04 01:22:00,61.0,60.0,-100.00,NE,55,0.0,0.0,93,0.00,,,-99.99,,2013-08-04 05:22:00,
2013-08-04 01:32:00,62.0,60.0,-100.00,ENE,70,0.0,0.0,93,0.00,,,-99.99,,2013-08-04 05:32:00,
2013-08-04 01:42:00,63.0,61.0,-100.00,East,100,5.0,7.0,93,0.00,,,-99.99,,2013-08-04 05:42:00,
2013-08-04 01:52:00,63.0,61.0,-100.00,East,100,5.0,7.0,93,0.00,,,-99.99,,2013-08-04 05:52:00,
2013-08-04 02:02:00,65.0,62.0,-100.00,East,90,5.0,9.0,91,0.00,,,-99.99,,2013-08-04 06:02:00,
2013-08-04 02:12:00,65.0,62.0,-100.00,East,95,4.0,9.0,90,0.00,,,-99.99,,2013-08-04 06:12:00,
2013-08-04 02:22:00,64.0,62.0,-100.00,East,90,3.0,7.0,90,0.00,,,-99.99,,2013-08-04 06:22:00,
2013-08-04 02:32:00,64.0,61.0,-100.00,East,95,5.0,9.0,91,0.00,,,-99.99,,2013-08-04 06:32:00,
2013-08-04 02:43:00,64.0,61.0,-100.00,East,90,3.0,7.0,91,0.00,,,-99.99,,2013-08-04 06:43:00,
2013-08-04 02:52:00,64.0,61.0,-100.00,East,95,6.0,9.0,90,0.00,,,-99.99,,2013-08-04 06:52:00,
2013-08-04 03:02:00,64.0,60.0,-100.00,East,90,7.0,9.0,88,0.55,,,-99.99,,2013-08-04 07:02:00,
2013-08-04 03:12:00,64.0,60.0,-100.00,ESE,105,4.0,11.0,88,0.00,,,-99.99,,2013-08-04 07:12:00,
2013-08-04 03:22:00,63.0,60.0,-100.00,East,100,4.0,8.0,88,0.00,,,-99.99,,2013-08-04 07:22:00,
2013-08-04 03:33:00,63.0,60.0,-100.00,East,95,4.0,7.0,89,0.00,,,-99.99,,2013-08-04 07:33:00,
2013-08-04 03:43:00,63.0,60.0,-100.00,East,100,4.0,6.0,89,0.00,,,-99.99,,2013-08-04 07:43:00,
2013-08-04 03:52:00,63.0,60.0,-100.00,East,100,4.0,6.0,89,0.00,,,-99.99,,2013-08-04 07:52:00,
2013-08-04 04:02:00,63.0,61.0,-100.00,East,90,4.0,6.0,91,0.00,,,-99.99,,2013-08-04 08:02:00,
2013-08-04 04:12:00,63.0,60.0,-100.00,East,90,4.0,6.0,90,0.00,,,-99.99,,2013-08-04 08:12:00,
2013-08-04 04:23:00,63.0,60.0,-100.00,East,90,6.0,8.0,88,0.00,,,-99.99,,2013-08-04 08:23:00,
2013-08-04 04:33:00,63.0,59.0,-100.00,East,95,6.0,10.0,86,0.00,,,-99.99,,2013-08-04 08:33:00,
2013-08-04 04:43:00,63.0,58.0,-100.00,East,100,6.0,9.0,85,0.00,,,-99.99,,2013-08-04 08:43:00,
2013-08-04 05:02:00,63.0,58.0,-100.00,East,100,6.0,10.0,85,0.00,,,-99.99,,2013-08-04 09:02:00,
2013-08-04 05:12:00,63.0,58.0,-100.00,East,100,6.0,10.0,85,0.00,,,-99.99,,2013-08-04 09:12:00,
2013-08-04 05:22:00,62.0,58.0,-100.00,East,90,4.0,9.0,88,0.00,,,-99.99,,2013-08-04 09:22:00,
2013-08-04 05:32:00,62.0,59.0,-100.00,East,85,4.0,6.0,89,0.00,,,-99.99,,2013-08-04 09:32:00,
2013-08-04 05:43:00,62.0,59.0,-100.00,East,85,4.0,6.0,90,0.00,,,-99.99,,2013-08-04 09:43:00,
2013-08-04 05:52:00,62.0,59.0,-100.00,East,85,4.0,6.0,90,0.00,,,-99.99,,2013-08-04 09:52:00,
2013-08-04 06:02:00,61.0,58.0,-100.00,East,85,3.0,4.0,92,0.00,,,-99.99,,2013-08-04 10:02:00,
2013-08-04 06:12:00,60.0,58.0,-100.00,East,85,3.0,4.0,92,0.00,,,-99.99,,2013-08-04 10:12:00,
2013-08-04 06:22:00,59.0,57.0,-100.00,East,90,3.0,4.0,93,0.00,,,-99.99,,2013-08-04 10:22:00,
2013-08-04 06:32:00,59.0,57.0,-100.00,East,80,4.0,5.0,94,0.00,,,-99.99,,2013-08-04 10:32:00,
2013-08-04 06:43:00,59.0,57.0,-100.00,East,85,3.0,5.0,94,0.00,,,-99.99,,2013-08-04 10:43:00,
2013-08-04 06:53:00,59.0,57.0,-100.00,East,85,3.0,5.0,94,0.00,,,-99.99,,2013-08-04 10:53:00,
2013-08-04 07:02:00,58.0,56.0,-100.00,ENE,75,3.0,4.0,95,0.00,,,-99.99,,2013-08-04 11:02:00,
2013-08-04 07:12:00,58.0,57.0,-100.00,East,95,3.0,4.0,96,0.00,,,-99.99,,2013-08-04 11:12:00,
2013-08-04 07:22:00,58.0,57.0,-100.00,East,80,3.0,4.0,96,0.00,,,-99.99,,2013-08-04 11:22:00,
2013-08-04 07:32:00,60.0,58.0,-100.00,East,80,4.0,6.0,96,0.00,,,-99.99,,2013-08-04 11:32:00,
2013-08-04 07:42:00,61.0,59.0,-100.00,East,85,6.0,7.0,94,0.00,,,-99.99,,2013-08-04 11:42:00,
2013-08-04 07:53:00,62.0,59.0,-100.00,ENE,75,7.0,9.0,89,0.00,,,-99.99,,2013-08-04 11:53:00,
2013-08-04 08:43:00,65.0,57.0,-100.00,East,90,11.0,14.0,74,0.00,,,-99.99,,2013-08-04 12:43:00,
2013-08-04 09:02:00,66.0,56.0,-100.00,East,95,12.0,16.0,71,0.00,,,-99.99,,2013-08-04 13:02:00,
2013-08-04 09:12:00,66.0,56.0,-100.00,East,95,11.0,16.0,71,0.00,,,-99.99,,2013-08-04 13:12:00,
2013-08-04 09:22:00,65.0,55.0,-100.00,ENE,65,11.0,16.0,71,0.00,,,-99.99,,2013-08-04 13:22:00,
2013-08-04 09:32:00,65.0,56.0,-100.00,East,90,11.0,17.0,72,0.00,,,-99.99,,2013-08-04 13:32:00,
2013-08-04 09:42:00,65.0,56.0,-100.00,East,90,11.0,17.0,72,0.00,,,-99.99,,2013-08-04 13:42:00,
2013-08-04 09:52:00,65.0,55.0,-100.00,ENE,65,10.0,18.0,70,0.00,,,-99.99,,2013-08-04 13:52:00,
2013-08-04 10:02:00,65.0,55.0,-100.00,East,80,12.0,16.0,70,0.00,,,-99.99,,2013-08-04 14:02:00,
2013-08-04 10:12:00,67.0,55.0,-100.00,East,90,12.0,16.0,65,0.00,,,-99.99,,2013-08-04 14:12:00,
2013-08-04 10:22:00,67.0,56.0,-100.00,East,95,13.0,19.0,69,0.00,,,-99.99,,2013-08-04 14:22:00,
2013-08-04 10:32:00,68.0,57.0,-100.00,East,85,10.0,17.0,67,0.00,,,-99.99,,2013-08-04 14:32:00,
2013-08-04 10:43:00,66.0,57.0,-100.00,East,90,11.0,17.0,71,0.00,,,-99.99,,2013-08-04 14:43:00,
2013-08-04 10:53:00,67.0,55.0,-100.00,ENE,70,11.0,15.0,65,0.00,,,-99.99,,2013-08-04 14:53:00,
2013-08-04 11:02:00,67.0,55.0,-100.00,East,90,10.0,15.0,65,0.00,,,-99.99,,2013-08-04 15:02:00,
2013-08-04 11:12:00,67.0,56.0,-100.00,ENE,75,12.0,19.0,68,0.00,,,-99.99,,2013-08-04 15:12:00,
2013-08-04 11:22:00,68.0,57.0,-100.00,East,95,14.0,19.0,67,0.00,,,-99.99,,2013-08-04 15:22:00,
2013-08-04 11:32:00,67.0,56.0,-100.00,East,80,13.0,19.0,66,0.00,,,-99.99,,2013-08-04 15:32:00,
2013-08-04 11:43:00,67.0,57.0,-100.00,East,90,13.0,16.0,69,0.00,,,-99.99,,2013-08-04 15:43:00,
2013-08-04 11:53:00,67.0,57.0,-100.00,ENE,75,12.0,17.0,69,0.00,,,-99.99,,2013-08-04 15:53:00,
2013-08-04 12:02:00,68.0,57.0,-100.00,East,80,11.0,17.0,67,0.00,,,-99.99,,2013-08-04 16:02:00,
2013-08-04 12:12:00,67.0,56.0,-100.00,ENE,75,11.0,17.0,68,0.00,,,-99.99,,2013-08-04 16:12:00,
2013-08-04 12:22:00,67.0,58.0,-100.00,East,80,11.0,19.0,71,0.00,,,-99.99,,2013-08-04 16:22:00,
2013-08-04 12:33:00,68.0,56.0,-100.00,East,85,11.0,14.0,64,0.00,,,-99.99,,2013-08-04 16:33:00,
2013-08-04 12:42:00,68.0,56.0,-100.00,ENE,75,11.0,18.0,67,0.00,,,-99.99,,2013-08-04 16:42:00,
2013-08-04 12:53:00,68.0,57.0,-100.00,East,80,9.0,14.0,67,0.00,,,-99.99,,2013-08-04 16:53:00,
2013-08-04 13:02:00,68.0,56.0,-100.00,East,80,12.0,15.0,66,0.00,,,-99.99,,2013-08-04 17:02:00,
2013-08-04 13:12:00,67.0,56.0,-100.00,ENE,75,9.0,14.0,67,0.00,,,-99.99,,2013-08-04 17:12:00,
2013-08-04 13:22:00,68.0,55.0,-100.00,East,80,12.0,16.0,63,0.00,,,-99.99,,2013-08-04 17:22:00,
2013-08-04 13:32:00,69.0,56.0,-100.00,East,80,9.0,17.0,63,0.00,,,-99.99,,2013-08-04 17:32:00,
2013-08-04 13:43:00,69.0,56.0,-100.00,East,80,6.0,16.0,62,0.00,,,-99.99,,2013-08-04 17:43:00,
2013-08-04 13:53:00,69.0,56.0,-100.00,East,90,12.0,16.0,62,0.00,,,-99.99,,2013-08-04 17:53:00,
2013-08-04 14:02:00,67.0,56.0,-100.00,East,95,9.0,19.0,65,0.00,,,-99.99,,2013-08-04 18:02:00,
2013-08-04 14:12:00,70.0,56.0,-100.00,ENE,75,10.0,16.0,61,0.00,,,-99.99,,2013-08-04 18:12:00,
2013-08-04 14:23:00,70.0,56.0,-100.00,ENE,75,10.0,16.0,61,0.00,,,-99.99,,2013-08-04 18:23:00,
2013-08-04 14:33:00,69.0,56.0,-100.00,East,85,9.0,15.0,62,0.00,,,-99.99,,2013-08-04 18:33:00,
2013-08-04 14:43:00,69.0,55.0,-100.00,ENE,65,8.0,15.0,61,0.00,,,-99.99,,2013-08-04 18:43:00,
2013-08-04 14:52:00,70.0,56.0,-100.00,East,85,6.0,13.0,61,0.00,,,-99.99,,2013-08-04 18:52:00,
2013-08-04 15:02:00,70.0,56.0,-100.00,ENE,70,11.0,18.0,60,0.00,,,-99.99,,2013-08-04 19:02:00,
2013-08-04 15:12:00,70.0,56.0,-100.00,ENE,65,11.0,15.0,60,0.00,,,-99.99,,2013-08-04 19:12:00,
2013-08-04 15:22:00,70.0,56.0,-100.00,East,100,6.0,12.0,60,0.00,,,-99.99,,2013-08-04 19:22:00,
2013-08-04 15:32:00,70.0,56.0,-100.00,East,95,9.0,16.0,62,0.00,,,-99.99,,2013-08-04 19:32:00,
2013-08-04 15:44:00,70.0,56.0,-100.00,East,90,10.0,16.0,60,0.00,,,-99.99,,2013-08-04 19:44:00,
2013-08-04 15:53:00,69.0,56.0,-100.00,East,80,7.0,16.0,63,0.00,,,-99.99,,2013-08-04 19:53:00,
2013-08-04 16:02:00,69.0,56.0,-100.00,East,85,7.0,14.0,61,0.00,,,-99.99,,2013-08-04 20:02:00,
2013-08-04 16:12:00,70.0,56.0,-100.00,East,85,10.0,14.0,61,0.00,,,-99.99,,2013-08-04 20:12:00,
2013-08-04 16:22:00,71.0,56.0,-100.00,East,95,13.0,17.0,59,0.00,,,-99.99,,2013-08-04 20:22:00,
2013-08-04 16:33:00,71.0,56.0,-100.00,East,80,9.0,17.0,60,0.00,,,-99.99,,2013-08-04 20:33:00,
2013-08-04 16:43:00,71.0,56.0,-100.00,ENE,75,11.0,19.0,59,0.00,,,-99.99,,2013-08-04 20:43:00,
2013-08-04 16:53:00,70.0,56.0,-100.00,ENE,65,9.0,15.0,60,0.00,,,-99.99,,2013-08-04 20:53:00,
2013-08-04 17:02:00,70.0,56.0,-100.00,ENE,70,9.0,17.0,61,0.00,,,-99.99,,2013-08-04 21:02:00,
2013-08-04 17:12:00,70.0,55.0,-100.00,East,80,12.0,18.0,60,0.00,,,-99.99,,2013-08-04 21:12:00,
2013-08-04 17:22:00,70.0,56.0,-100.00,East,90,13.0,19.0,61,0.00,,,-99.99,,2013-08-04 21:22:00,
2013-08-04 17:32:00,70.0,56.0,-100.00,East,85,10.0,17.0,61,0.00,,,-99.99,,2013-08-04 21:32:00,
2013-08-04 17:43:00,70.0,57.0,-100.00,ENE,75,9.0,14.0,61,0.00,,,-99.99,,2013-08-04 21:43:00,
2013-08-04 17:52:00,69.0,56.0,-100.00,ENE,75,9.0,17.0,64,0.00,,,-99.99,,2013-08-04 21:52:00,
2013-08-04 18:02:00,70.0,56.0,-100.00,East,90,11.0,15.0,62,0.00,,,-99.99,,2013-08-04 22:02:00,
2013-08-04 18:12:00,69.0,56.0,-100.00,ENE,70,7.0,14.0,63,0.00,,,-99.99,,2013-08-04 22:12:00,
2013-08-04 18:22:00,68.0,57.0,-100.00,East,85,10.0,15.0,66,0.00,,,-99.99,,2013-08-04 22:22:00,
2013-08-04 18:32:00,70.0,57.0,-100.00,East,85,9.0,13.0,63,0.00,,,-99.99,,2013-08-04 22:32:00,
2013-08-04 18:43:00,69.0,57.0,-100.00,East,90,8.0,17.0,65,0.00,,,-99.99,,2013-08-04 22:43:00,
2013-08-04 18:53:00,69.0,57.0,-100.00,NE,55,7.0,14.0,65,0.00,,,-99.99,,2013-08-04 22:53:00,
2013-08-04 19:02:00,69.0,57.0,-100.00,East,80,9.0,14.0,65,0.00,,,-99.99,,2013-08-04 23:02:00,
2013-08-04 19:12:00,67.0,57.0,-100.00,East,85,9.0,13.0,68,0.00,,,-99.99,,2013-08-04 23:12:00,
2013-08-04 19:23:00,68.0,57.0,-100.00,ENE,75,9.0,12.0,67,0.00,,,-99.99,,2013-08-04 23:23:00,
2013-08-04 19:32:00,68.0,57.0,-100.00,ENE,75,7.0,12.0,68,0.00,,,-99.99,,2013-08-04 23:32:00,
2013-08-04 19:43:00,69.0,58.0,-100.00,NE,50,3.0,9.0,68,0.00,,,-99.99,,2013-08-04 23:43:00,
2013-08-04 19:53:00,68.0,58.0,-100.00,East,80,6.0,9.0,71,0.00,,,-99.99,,2013-08-04 23:53:00,
2013-08-04 20:02:00,67.0,58.0,-100.00,East,80,6.0,11.0,71,0.00,,,-99.99,,2013-08-05 00:02:00,
2013-08-04 20:12:00,67.0,58.0,-100.00,East,80,6.0,11.0,71,0.00,,,-99.99,,2013-08-05 00:12:00,
2013-08-04 20:22:00,67.0,55.0,-100.00,East,85,7.0,14.0,64,0.00,,,-99.99,,2013-08-05 00:22:00,
2013-08-04 20:33:00,67.0,55.0,-100.00,East,85,6.0,11.0,66,0.00,,,-99.99,,2013-08-05 00:33:00,
2013-08-04 20:42:00,65.0,55.0,-100.00,East,90,6.0,9.0,69,0.00,,,-99.99,,2013-08-05 00:42:00,
2013-08-04 20:53:00,64.0,56.0,-100.00,ENE,75,4.0,7.0,75,0.00,,,-99.99,,2013-08-05 00:53:00,
2013-08-04 21:02:00,63.0,55.0,-100.00,East,85,6.0,7.0,75,0.00,,,-99.99,,2013-08-05 01:02:00,
2013-08-04 21:12:00,62.0,55.0,-100.00,East,85,4.0,6.0,77,0.00,,,-99.99,,2013-08-05 01:12:00,
2013-08-04 21:22:00,61.0,55.0,-100.00,East,85,4.0,6.0,79,0.00,,,-99.99,,2013-08-05 01:22:00,
2013-08-04 21:33:00,60.0,54.0,-100.00,East,80,3.0,6.0,80,0.00,,,-99.99,,2013-08-05 01:33:00,
2013-08-04 21:42:00,60.0,54.0,-100.00,ENE,75,4.0,6.0,81,0.00,,,-99.99,,2013-08-05 01:42:00,
2013-08-04 21:52:00,59.0,54.0,-100.00,East,90,3.0,4.0,81,0.00,,,-99.99,,2013-08-05 01:52:00,
2013-08-04 22:02:00,59.0,54.0,-100.00,East,90,3.0,4.0,81,0.00,,,-99.99,,2013-08-05 02:02:00,
2013-08-04 22:12:00,59.0,54.0,-100.00,East,95,3.0,4.0,81,0.00,,,-99.99,,2013-08-05 02:12:00,
2013-08-04 22:22:00,59.0,53.0,-100.00,East,80,2.0,4.0,81,0.00,,,-99.99,,2013-08-05 02:22:00,
2013-08-04 22:33:00,59.0,53.0,-100.00,East,80,3.0,4.0,81,0.00,,,-99.99,,2013-08-05 02:33:00,
2013-08-04 22:43:00,58.0,53.0,-100.00,East,80,4.0,4.0,81,0.00,,,-99.99,,2013-08-05 02:43:00,
2013-08-04 22:53:00,58.0,53.0,-100.00,East,90,3.0,4.0,82,0.00,,,-99.99,,2013-08-05 02:53:00,
2013-08-04 23:02:00,58.0,53.0,-100.00,East,100,2.0,4.0,81,0.00,,,-99.99,,2013-08-05 03:02:00,
2013-08-04 23:12:00,58.0,53.0,-100.00,East,100,2.0,4.0,81,0.00,,,-99.99,,2013-08-05 03:12:00,
2013-08-04 23:22:00,58.0,52.0,-100.00,ESE,105,4.0,5.0,80,0.00,,,-99.99,,2013-08-05 03:22:00,
2013-08-04 23:32:00,59.0,52.0,-100.00,East,95,4.0,6.0,76,0.00,,,-99.99,,2013-08-05 03:32:00,
2013-08-04 23:42:00,58.0,52.0,-100.00,East,90,4.0,5.0,78,0.00,,,-99.99,,2013-08-05 03:42:00,
2013-08-04 23:53:00,58.0,51.0,-100.00,East,95,4.0,4.0,79,0.00,,,-99.99,,2013-08-05 03:53:00,